createdAt,value
2019-01-05T00:00:26.143Z,18.98
2019-01-05T00:03:10.323Z,15.63
2019-01-05T00:05:41.735Z,16.40
2019-01-05T00:08:10.603Z,21.45
2019-01-05T00:10:55.811Z,17.57
2019-01-05T00:13:42.673Z,13.35
2019-01-05T00:16:17.726Z,18.25
2019-01-05T00:18:46.861Z,19.20
2019-01-05T00:21:32.378Z,25.55
2019-01-05T00:24:01.253Z,15.50
2019-01-05T00:26:42.142Z,18.02
2019-01-05T00:29:20.006Z,17.42
2019-01-05T00:32:23.398Z,18.15
2019-01-05T00:34:58.015Z,25.60
2019-01-05T00:37:27.605Z,22.02
2019-01-05T00:39:58.001Z,17.07
2019-01-05T00:42:39.626Z,21.33
2019-01-05T00:45:17.571Z,21.40
2019-01-05T00:48:02.843Z,20.23
2019-01-05T00:50:32.866Z,16.95
2019-01-05T00:53:20.171Z,22.95
2019-01-05T00:56:06.038Z,18.27
2019-01-05T00:58:34.967Z,22.75
2019-01-05T01:01:15.915Z,21.37
2019-01-05T01:03:53.731Z,20.20
2019-01-05T01:06:25.283Z,22.05
2019-01-05T01:09:00.176Z,21.77
2019-01-05T01:11:37.871Z,22.65
2019-01-05T01:14:23.111Z,21.02
2019-01-05T01:16:52.057Z,19.95
2019-01-05T01:19:21.505Z,25.88
2019-01-05T01:21:56.403Z,18.75
2019-01-05T01:24:41.203Z,22.65
2019-01-05T01:27:12.759Z,19.23
2019-01-05T01:29:41.606Z,21.55
2019-01-05T01:32:10.466Z,20.88
2019-01-05T01:34:39.402Z,22.30
2019-01-05T01:37:14.123Z,20.75
2019-01-05T01:39:44.530Z,31.17
2019-01-05T01:42:29.819Z,21.62
2019-01-05T01:44:59.159Z,21.40
2019-01-05T01:47:37.895Z,25.12
2019-01-05T01:50:23.290Z,19.48
2019-01-05T01:53:09.981Z,20.00
2019-01-05T01:55:40.378Z,22.05
2019-01-05T01:58:18.803Z,22.45
2019-01-05T02:00:53.467Z,31.42
2019-01-05T02:03:22.395Z,29.15
2019-01-05T02:06:09.694Z,20.00
2019-01-05T02:08:42.600Z,25.08
2019-01-05T02:11:15.669Z,20.00
2019-01-05T02:13:58.010Z,23.73
2019-01-05T02:16:45.023Z,24.65
2019-01-05T02:19:21.266Z,21.33
2019-01-05T02:22:12.531Z,21.50
2019-01-05T02:24:55.024Z,23.20
2019-01-05T02:27:47.551Z,28.87
2019-01-05T02:30:27.130Z,26.40
2019-01-05T02:33:23.416Z,24.85
2019-01-05T02:35:59.738Z,23.12
2019-01-05T02:38:30.131Z,23.50
2019-01-05T02:41:26.247Z,26.93
2019-01-05T02:44:20.602Z,24.00
2019-01-05T02:46:59.532Z,22.75
2019-01-05T02:49:46.438Z,29.42
2019-01-05T02:52:43.832Z,27.93
2019-01-05T02:55:46.274Z,28.57
2019-01-05T02:58:35.883Z,30.05
2019-01-05T03:01:18.130Z,33.10
2019-01-05T03:03:57.284Z,40.85
2019-01-05T03:06:59.669Z,24.43
2019-01-05T03:09:47.916Z,35.98
2019-01-05T03:12:33.192Z,35.20
2019-01-05T03:15:22.820Z,32.30
2019-01-05T03:18:06.291Z,29.70
2019-01-05T03:20:45.602Z,30.60
2019-01-05T03:23:18.809Z,27.70
2019-01-05T03:25:58.263Z,27.75
2019-01-05T03:28:46.630Z,31.20
2019-01-05T03:31:44.259Z,34.53
2019-01-05T03:34:34.168Z,30.17
2019-01-05T03:37:24.379Z,34.05
2019-01-05T03:40:09.512Z,38.75
2019-01-05T03:42:42.558Z,28.62
2019-01-05T03:45:30.927Z,34.27
2019-01-05T03:48:20.466Z,38.17
2019-01-05T03:51:15.036Z,28.23
2019-01-05T03:54:04.857Z,30.75
2019-01-05T03:56:50.412Z,31.65
2019-01-05T03:59:35.131Z,31.80
2019-01-05T04:02:17.423Z,29.12
2019-01-05T04:04:56.571Z,28.23
2019-01-05T04:07:32.802Z,29.57
2019-01-05T04:10:09.244Z,24.70
2019-01-05T04:13:03.236Z,29.27
2019-01-05T04:16:06.968Z,28.40
2019-01-05T04:18:43.234Z,20.72
2019-01-05T04:21:43.856Z,29.12
2019-01-05T04:24:23.031Z,30.70
2019-01-05T04:27:17.744Z,29.63
2019-01-05T04:29:56.943Z,25.80
2019-01-05T04:32:46.244Z,20.20
2019-01-05T04:35:22.515Z,27.37
2019-01-05T04:38:08.050Z,24.95
2019-01-05T04:40:47.455Z,20.97
2019-01-05T04:43:37.511Z,25.65
2019-01-05T04:46:39.574Z,26.80
2019-01-05T04:49:31.344Z,18.57
2019-01-05T04:52:36.704Z,17.65
2019-01-05T04:55:31.494Z,25.92
2019-01-05T04:58:18.699Z,27.67
2019-01-05T05:00:49.112Z,21.37
2019-01-05T05:03:36.971Z,17.35
2019-01-05T05:06:10.125Z,21.50
2019-01-05T05:09:06.179Z,22.82
2019-01-05T05:11:48.579Z,18.70
2019-01-05T05:14:21.580Z,21.85
2019-01-05T05:17:00.907Z,28.65
2019-01-05T05:19:34.213Z,25.68
2019-01-05T05:22:04.614Z,24.57
2019-01-05T05:24:51.818Z,23.45
2019-01-05T05:27:28.207Z,21.07
2019-01-05T05:30:31.473Z,18.23
2019-01-05T05:33:18.402Z,19.67
2019-01-05T05:36:25.328Z,22.87
2019-01-05T05:39:28.866Z,18.25
2019-01-05T05:42:24.951Z,17.23
2019-01-05T05:45:14.970Z,19.62
2019-01-05T05:47:51.359Z,15.72
2019-01-05T05:50:57.026Z,18.10
2019-01-05T05:53:30.066Z,15.60
2019-01-05T05:56:09.566Z,15.88
2019-01-05T05:58:55.024Z,18.20
2019-01-05T06:01:49.463Z,16.45
2019-01-05T06:04:25.599Z,11.60
2019-01-05T06:07:16.875Z,16.15
2019-01-05T06:10:03.519Z,15.63
2019-01-05T06:12:59.327Z,8.70
2019-01-05T06:15:47.374Z,12.40
2019-01-05T06:18:35.654Z,12.98
2019-01-05T06:21:27.046Z,10.45
2019-01-05T06:24:13.783Z,10.28
2019-01-05T06:26:47.079Z,8.20
2019-01-05T06:29:35.603Z,8.35
2019-01-05T06:32:31.743Z,6.00
2019-01-05T06:35:32.543Z,8.05
2019-01-05T06:38:05.867Z,8.48
2019-01-05T06:40:36.267Z,8.45
2019-01-05T06:43:09.538Z,7.03
2019-01-05T06:46:02.639Z,9.78
2019-01-05T06:48:49.446Z,9.95
2019-01-05T06:51:39.378Z,9.00
2019-01-05T06:54:18.826Z,6.15
2019-01-05T06:57:20.983Z,5.50
2019-01-05T07:00:07.818Z,8.63
2019-01-05T07:03:12.654Z,6.37
2019-01-05T07:06:02.371Z,4.83
2019-01-05T07:08:53.235Z,6.12
2019-01-05T07:11:38.423Z,7.97
2019-01-05T07:14:26.962Z,5.33
2019-01-05T07:17:16.938Z,7.42
2019-01-05T07:20:20.626Z,7.47
2019-01-05T07:23:23.890Z,4.12
2019-01-05T07:26:10.879Z,4.45
2019-01-05T07:29:16.046Z,7.47
2019-01-05T07:32:05.891Z,10.03
2019-01-05T07:34:48.143Z,5.53
2019-01-05T07:37:40.399Z,5.47
2019-01-05T07:40:36.426Z,4.92
2019-01-05T07:43:15.853Z,4.70
2019-01-05T07:46:21.080Z,3.98
2019-01-05T07:49:14.635Z,3.45
2019-01-05T07:52:16.962Z,5.00
2019-01-05T07:55:06.971Z,4.58
2019-01-05T07:57:39.924Z,3.77
2019-01-05T08:00:38.987Z,4.45
2019-01-05T08:03:33.562Z,3.08
2019-01-05T08:06:28.244Z,2.25
2019-01-05T08:08:59.704Z,4.22
2019-01-05T08:11:52.522Z,5.33
2019-01-05T08:14:34.643Z,3.37
2019-01-05T08:17:26.134Z,2.37
2019-01-05T08:20:12.792Z,2.35
2019-01-05T08:23:00.054Z,2.00
2019-01-05T08:25:48.103Z,3.10
2019-01-05T08:28:35.130Z,2.08
2019-01-05T08:31:11.407Z,2.08
2019-01-05T08:34:07.139Z,1.60
2019-01-05T08:36:37.526Z,2.60
2019-01-05T08:39:25.780Z,2.20
2019-01-05T08:42:14.998Z,2.87
2019-01-05T08:45:18.134Z,2.92
2019-01-05T08:51:32.810Z,1.50
2019-01-05T08:54:25.595Z,1.80
2019-01-05T08:57:20.318Z,2.75
2019-01-05T09:00:20.512Z,1.60
2019-01-05T09:03:11.911Z,2.10
2019-01-05T09:05:51.175Z,2.35
2019-01-05T09:08:33.777Z,1.62
2019-01-05T09:11:37.303Z,2.33
2019-01-05T09:14:33.400Z,2.27
2019-01-05T09:17:27.904Z,1.60
2019-01-05T09:20:07.060Z,4.28
2019-01-05T09:23:08.636Z,2.80
2019-01-05T09:26:10.998Z,1.45
2019-01-05T09:29:04.096Z,1.10
2019-01-05T09:31:52.559Z,1.40
2019-01-05T09:34:25.500Z,2.87
2019-01-05T09:37:18.811Z,2.47
2019-01-05T09:40:05.818Z,1.90
2019-01-05T09:42:45.111Z,2.60
2019-01-05T09:45:24.127Z,2.25
2019-01-05T09:48:00.055Z,1.27
2019-01-05T09:50:46.988Z,1.70
2019-01-05T09:53:46.174Z,1.30
2019-01-05T09:56:35.964Z,6.35
2019-01-05T09:59:33.684Z,2.12
2019-01-05T10:02:20.259Z,2.75
2019-01-05T10:05:12.231Z,2.67
2019-01-05T10:08:03.536Z,1.75
2019-01-05T10:10:50.003Z,3.02
2019-01-05T10:13:39.919Z,2.25
2019-01-05T10:16:43.718Z,1.50
2019-01-05T10:19:23.068Z,1.80
2019-01-05T10:22:12.819Z,3.10
2019-01-05T10:25:05.847Z,1.98
2019-01-05T10:27:55.867Z,2.90
2019-01-05T10:30:51.991Z,2.05
2019-01-05T10:33:28.366Z,4.15
2019-01-05T10:36:15.422Z,1.95
2019-01-05T10:39:19.274Z,1.65
2019-01-05T10:42:04.527Z,2.52
2019-01-05T10:44:49.707Z,3.22
2019-01-05T10:47:56.341Z,1.70
2019-01-05T10:50:38.406Z,1.27
2019-01-05T10:53:27.062Z,1.32
2019-01-05T10:56:12.210Z,1.35
2019-01-05T10:59:00.513Z,1.85
2019-01-05T11:01:47.501Z,1.82
2019-01-05T11:04:34.522Z,2.37
2019-01-05T11:07:22.739Z,1.87
2019-01-05T11:10:11.377Z,1.40
2019-01-05T11:12:56.296Z,4.08
2019-01-05T11:15:53.181Z,1.72
2019-01-05T11:18:32.590Z,2.98
2019-01-05T11:21:36.089Z,2.83
2019-01-05T11:24:21.515Z,3.70
2019-01-05T11:27:08.680Z,2.90
2019-01-05T11:30:01.532Z,1.60
2019-01-05T11:33:05.491Z,5.22
2019-01-05T11:35:35.870Z,3.22
2019-01-05T11:38:33.403Z,3.87
2019-01-05T11:41:20.478Z,1.87
2019-01-05T11:44:08.707Z,5.55
2019-01-05T11:46:41.721Z,2.75
2019-01-05T11:49:18.075Z,3.10
2019-01-05T11:52:03.407Z,1.87
2019-01-05T11:54:39.535Z,5.65
2019-01-05T11:57:43.267Z,5.35
2019-01-05T12:00:30.025Z,1.95
2019-01-05T12:03:06.447Z,1.87
2019-01-05T12:06:11.691Z,2.00
2019-01-05T12:08:45.117Z,1.60
2019-01-05T12:11:47.519Z,3.40
2019-01-05T12:14:37.315Z,1.60
2019-01-05T12:17:42.448Z,1.90
2019-01-05T12:20:44.468Z,2.15
2019-01-05T12:23:35.724Z,3.20
2019-01-05T12:26:17.963Z,2.42
2019-01-05T12:28:48.347Z,5.53
2019-01-05T12:31:51.807Z,1.70
2019-01-05T12:34:24.639Z,3.17
2019-01-05T12:37:06.989Z,2.58
2019-01-05T12:39:55.218Z,2.40
2019-01-05T12:42:44.780Z,2.10
2019-01-05T12:45:36.120Z,6.03
2019-01-05T12:48:15.330Z,2.80
2019-01-05T12:51:09.441Z,1.50
2019-01-05T12:54:02.535Z,2.10
2019-01-05T12:57:07.846Z,1.92
2019-01-05T13:00:13.071Z,1.57
2019-01-05T13:02:59.711Z,3.55
2019-01-05T13:05:30.116Z,2.12
2019-01-05T13:08:33.450Z,3.47
2019-01-05T13:11:18.979Z,4.00
2019-01-05T13:14:04.304Z,6.53
2019-01-05T13:16:55.591Z,5.00
2019-01-05T13:19:47.220Z,8.68
2019-01-05T13:22:50.834Z,6.12
2019-01-05T13:25:40.936Z,4.90
2019-01-05T13:28:30.851Z,6.10
2019-01-05T13:31:21.158Z,4.20
2019-01-05T13:33:57.444Z,3.00
2019-01-05T13:36:54.963Z,7.33
2019-01-05T13:39:43.222Z,5.70
2019-01-05T13:42:37.048Z,5.90
2019-01-05T13:45:29.865Z,9.30
2019-01-05T13:48:16.519Z,7.95
2019-01-05T13:50:52.923Z,4.15
2019-01-05T13:53:23.323Z,5.35
2019-01-05T13:55:59.818Z,6.33
2019-01-05T13:58:45.053Z,4.75
2019-01-05T14:01:19.705Z,6.33
2019-01-05T14:04:00.727Z,13.90
2019-01-05T14:06:44.617Z,9.53
2019-01-05T14:09:22.175Z,7.05
2019-01-05T14:11:54.318Z,5.62
2019-01-05T14:14:29.169Z,6.33
2019-01-05T14:17:00.723Z,6.87
2019-01-05T14:19:29.583Z,17.70
2019-01-05T14:22:16.794Z,6.33
2019-01-05T14:24:51.338Z,4.35
2019-01-05T14:27:36.559Z,7.95
2019-01-05T14:30:06.283Z,4.45
2019-01-05T14:32:40.878Z,6.75
2019-01-05T14:35:09.742Z,5.35
2019-01-05T14:37:41.739Z,8.30
2019-01-05T14:40:22.222Z,7.95
2019-01-05T14:43:03.055Z,6.80
2019-01-05T14:45:34.637Z,4.62
2019-01-05T14:48:21.935Z,6.65
2019-01-05T14:51:07.000Z,4.87
2019-01-05T14:53:53.981Z,6.62
2019-01-05T14:56:35.137Z,5.20
2019-01-05T14:59:20.288Z,5.87
2019-01-05T15:02:05.494Z,4.30
2019-01-05T15:04:46.323Z,5.10
2019-01-05T15:07:21.039Z,4.28
2019-01-05T15:09:55.599Z,8.05
2019-01-05T15:12:24.455Z,7.10
2019-01-05T15:15:10.023Z,7.37
2019-01-05T15:17:53.869Z,8.95
2019-01-05T15:20:25.374Z,5.12
2019-01-05T15:22:57.151Z,7.90
2019-01-05T15:25:42.375Z,6.83
2019-01-05T15:28:23.156Z,6.70
2019-01-05T15:30:52.004Z,8.93
2019-01-05T15:33:23.987Z,8.50
2019-01-05T15:36:11.231Z,8.08
2019-01-05T15:38:46.044Z,15.15
2019-01-05T15:41:30.177Z,8.30
2019-01-05T15:44:15.283Z,6.97
2019-01-05T15:46:59.351Z,8.10
2019-01-05T15:49:40.394Z,9.58
2019-01-05T15:52:24.434Z,10.48
2019-01-05T15:55:11.150Z,10.68
2019-01-05T15:57:45.739Z,6.95
2019-01-05T16:00:23.611Z,10.60
2019-01-05T16:02:55.164Z,7.67
2019-01-05T16:05:24.035Z,9.83
2019-01-05T16:07:52.896Z,8.78
2019-01-05T16:10:27.931Z,7.72
2019-01-05T16:13:13.663Z,10.15
2019-01-05T16:16:00.406Z,7.70
2019-01-05T16:18:40.768Z,12.20
2019-01-05T16:21:18.798Z,7.97
2019-01-05T16:23:59.335Z,12.68
2019-01-05T16:26:40.475Z,7.35
2019-01-05T16:29:27.213Z,9.30
2019-01-05T16:32:05.186Z,11.40
2019-01-05T16:34:34.055Z,11.45
2019-01-05T16:37:13.478Z,8.58
2019-01-05T16:39:42.340Z,5.75
2019-01-05T16:42:13.871Z,8.55
2019-01-05T16:44:48.710Z,7.12
2019-01-05T16:47:34.369Z,6.65
2019-01-05T16:50:12.231Z,8.53
2019-01-05T16:52:44.015Z,6.60
2019-01-05T16:55:15.843Z,5.60
2019-01-05T16:57:44.688Z,6.05
2019-01-05T17:00:30.227Z,7.72
2019-01-05T17:03:01.742Z,3.45
2019-01-05T17:05:33.290Z,5.25
2019-01-05T17:08:17.110Z,7.80
2019-01-05T17:10:48.577Z,4.78
2019-01-05T17:13:26.558Z,8.43
2019-01-05T17:15:58.335Z,5.22
2019-01-05T17:18:43.623Z,10.55
2019-01-05T17:21:30.604Z,6.47
2019-01-05T17:24:02.159Z,6.25
2019-01-05T17:26:43.264Z,12.68
2019-01-05T17:29:28.656Z,5.70
2019-01-05T17:32:09.437Z,3.15
2019-01-05T17:34:47.259Z,5.00
2019-01-05T17:37:28.466Z,17.30
2019-01-05T17:40:09.447Z,3.08
2019-01-05T17:42:41.225Z,4.75
2019-01-05T17:45:10.090Z,7.03
2019-01-05T17:47:55.226Z,6.00
2019-01-05T17:50:26.786Z,4.17
2019-01-05T17:53:01.619Z,5.20
2019-01-05T17:55:39.795Z,8.98
2019-01-05T17:58:14.741Z,7.62
2019-01-05T18:00:55.805Z,5.50
2019-01-05T18:03:41.019Z,4.12
2019-01-05T18:06:09.885Z,3.90
2019-01-05T18:08:47.480Z,4.20
2019-01-05T18:11:21.963Z,5.58
2019-01-05T18:13:59.547Z,3.98
2019-01-05T18:16:28.420Z,5.25
2019-01-05T18:19:13.710Z,6.70
2019-01-05T18:21:54.549Z,8.33
2019-01-05T18:24:25.807Z,10.23
2019-01-05T18:26:54.690Z,5.28
2019-01-05T18:29:29.461Z,9.15
2019-01-05T18:31:58.309Z,8.53
2019-01-05T18:34:32.879Z,7.22
2019-01-05T18:37:13.772Z,10.78
2019-01-05T18:39:58.674Z,9.85
2019-01-05T18:42:27.550Z,2.90
2019-01-05T18:45:05.555Z,7.03
2019-01-05T18:47:46.762Z,6.58
2019-01-05T18:50:15.610Z,12.47
2019-01-05T18:52:56.380Z,12.25
2019-01-05T18:55:28.278Z,6.15
2019-01-05T18:58:13.392Z,6.05
2019-01-05T19:00:42.223Z,10.53
2019-01-05T19:03:13.784Z,5.80
2019-01-05T19:05:59.233Z,5.25
2019-01-05T19:08:36.994Z,11.57
2019-01-05T19:11:17.786Z,8.85
2019-01-05T19:13:55.687Z,10.38
2019-01-05T19:16:24.581Z,13.38
2019-01-05T19:19:10.136Z,7.45
2019-01-05T19:21:57.050Z,10.10
2019-01-05T19:24:41.221Z,15.00
2019-01-05T19:27:15.886Z,10.60
2019-01-05T19:29:56.920Z,9.73
2019-01-05T19:32:28.622Z,6.22
2019-01-05T19:35:03.360Z,11.12
2019-01-05T19:37:34.954Z,7.80
2019-01-05T19:40:04.003Z,6.25
2019-01-05T19:42:32.855Z,7.62
2019-01-05T19:45:13.720Z,7.47
2019-01-05T19:47:42.566Z,6.30
2019-01-05T19:50:26.768Z,6.15
2019-01-05T19:52:58.315Z,6.87
2019-01-05T19:55:33.143Z,3.45
2019-01-05T19:58:13.899Z,8.28
2019-01-05T20:00:48.733Z,5.72
2019-01-05T20:03:33.886Z,15.90
2019-01-05T20:06:17.691Z,4.08
2019-01-05T20:08:58.398Z,4.85
2019-01-05T20:11:43.984Z,6.50
2019-01-05T20:14:27.883Z,4.80
2019-01-05T20:17:02.963Z,5.40
2019-01-05T20:19:37.999Z,5.58
2019-01-05T20:22:15.907Z,7.75
2019-01-05T20:24:44.775Z,5.25
2019-01-05T20:27:16.535Z,5.03
2019-01-05T20:29:54.115Z,5.12
2019-01-05T20:32:25.879Z,4.92
2019-01-05T20:34:54.787Z,6.05
2019-01-05T20:37:38.727Z,7.58
2019-01-05T20:40:07.963Z,5.30
2019-01-05T20:42:39.762Z,4.60
2019-01-05T20:45:14.342Z,12.55
2019-01-05T20:47:49.195Z,6.80
2019-01-05T20:50:18.322Z,3.52
2019-01-05T20:53:05.188Z,2.37
2019-01-05T20:55:40.083Z,4.03
2019-01-05T20:58:11.847Z,7.25
2019-01-05T21:00:43.248Z,5.45
2019-01-05T21:03:12.095Z,3.15
2019-01-05T21:05:43.927Z,5.05
2019-01-05T21:08:24.751Z,5.00
2019-01-05T21:10:56.311Z,4.60
2019-01-05T21:13:41.759Z,7.00
2019-01-05T21:16:13.323Z,4.85
2019-01-05T21:18:48.335Z,5.40
2019-01-05T21:21:33.903Z,2.98
2019-01-05T21:24:08.463Z,7.65
2019-01-05T21:26:53.431Z,4.42
2019-01-05T21:29:28.134Z,4.90
2019-01-05T21:31:56.995Z,4.85
2019-01-05T21:34:25.858Z,6.92
2019-01-05T21:37:11.147Z,4.60
2019-01-05T21:39:40.027Z,3.75
2019-01-05T21:42:09.315Z,5.05
2019-01-05T21:44:40.883Z,6.00
2019-01-05T21:47:12.678Z,6.17
2019-01-05T21:49:50.571Z,5.62
2019-01-05T21:52:25.155Z,6.00
2019-01-05T21:55:05.976Z,5.35
2019-01-05T21:57:44.840Z,11.25
2019-01-05T22:00:17.387Z,3.35
2019-01-05T22:03:02.934Z,5.90
2019-01-05T22:05:31.786Z,3.67
2019-01-05T22:08:17.175Z,8.20
2019-01-05T22:10:46.022Z,4.25
2019-01-05T22:13:14.891Z,4.83
2019-01-05T22:15:55.620Z,6.78
2019-01-05T22:18:24.473Z,4.22
2019-01-05T22:21:02.185Z,3.90
2019-01-05T22:23:46.259Z,4.22
2019-01-05T22:26:27.170Z,4.95
2019-01-05T22:29:12.525Z,4.70
2019-01-05T22:31:47.071Z,6.05
2019-01-05T22:34:15.926Z,5.00
2019-01-05T22:36:47.543Z,5.75
2019-01-05T22:39:16.398Z,5.70
2019-01-05T22:41:45.269Z,3.00
2019-01-05T22:44:23.295Z,5.53
2019-01-05T22:47:01.328Z,5.25
2019-01-05T22:49:45.223Z,4.62
2019-01-05T22:52:20.064Z,6.22
2019-01-05T22:54:57.885Z,4.22
2019-01-05T22:57:32.399Z,5.22
2019-01-05T23:00:09.703Z,7.62
2019-01-05T23:02:50.362Z,7.62
2019-01-05T23:05:22.095Z,6.37
2019-01-05T23:07:56.900Z,7.33
2019-01-05T23:10:25.763Z,5.45
2019-01-05T23:13:03.795Z,7.70
2019-01-05T23:15:48.971Z,6.03
2019-01-05T23:18:32.786Z,3.77
2019-01-05T23:21:17.045Z,10.05
2019-01-05T23:24:00.983Z,5.95
2019-01-05T23:26:32.643Z,5.08
2019-01-05T23:29:07.584Z,6.58
2019-01-05T23:31:51.535Z,7.53
2019-01-05T23:34:20.400Z,6.80
2019-01-05T23:37:06.225Z,5.20
2019-01-05T23:39:40.934Z,6.00
2019-01-05T23:42:26.562Z,5.05
2019-01-05T23:45:07.336Z,8.35
2019-01-05T23:47:54.642Z,6.47
2019-01-05T23:50:23.502Z,4.58
2019-01-05T23:52:52.354Z,5.78
2019-01-05T23:55:24.127Z,6.70
2019-01-05T23:57:53.349Z,6.10
